• Join FlightAware (Why Join?)
  • Login
  • US Flag 
Gobble Gobble! 
01:43AM EST


 

Airport Tracker/Info


-or-


 

Live Flight TrackerFlight Track Log ✈ GJS3657 ✈ 22-Jun-2013 ✈ KALB - KORD

Flight Track Log - Related Links

Times and Time Zones

All times are in EDT time to prevent confusion due to time zone crossing. See the GJS3657 flight status page for this flight to view local times or setup timezone preferences in your user account.

Time Position Orientation Groundspeed Altitude Reporting Facility
EDT Latitude Longitude Course Direction KTS MPH feet Rate Location/Type
07:06AM 42.7278 -73.8081 276° West 152 175 1,200  Level Boston Center
07:07AM 42.7022 -73.8469 228° Southwest 208 239 2,900 1,440 Climbing Boston Center
07:08AM 42.7411 -73.8989 316° Northwest 267 307 4,000 2,220 Climbing Boston Center
07:09AM 43.0109 -74.0975 279° West  Level FlightAware Approximate
07:09AM 42.8028 -73.9794 316° Northwest 291 335 7,200  Level Boston Center
07:10AM 43.0222 -74.2269 276° West  Level FlightAware Approximate
07:10AM 42.8600 -74.0547 316° Northwest 291 335 10,000  Level Boston Center
07:11AM 43.0315 -74.3567 276° West  Level FlightAware Approximate
07:11AM 42.9133 -74.1183 319° Northwest 286 329 11,800  Level Boston Center
07:12AM 42.9828 -74.2139 315° West 315 362 13,900 2,040 Climbing Boston Center
07:13AM 43.0058 -74.3225 286° West 315 362 15,900 1,920 Climbing Boston Center
07:14AM 43.0183 -74.4564 277° West 326 375 17,800 1,500 Climbing Boston Center
07:15AM 43.0267 -74.5589 276° West 340 391 18,900 1,260 Climbing Boston Center
07:16AM 43.0406 -74.7069 277° West 347 399 20,400 1,500 Climbing Boston Center
07:17AM 43.0525 -74.8411 277° West 354 407 22,000 1,440 Climbing Boston Center
07:18AM 43.0642 -74.9781 277° West 360 414 23,300 1,200 Climbing Boston Center
07:19AM 43.0753 -75.1206 276° West 372 428 24,400 1,080 Climbing Boston Center
07:20AM 43.0844 -75.2603 275° West 377 434 25,500 1,080 Climbing Boston Center
07:21AM 43.0975 -75.4089 277° West 382 440 26,600 1,020 Climbing Boston Center
07:22AM 43.1103 -75.5572 277° West 388 447 27,600 960 Climbing Boston Center
07:23AM 43.1228 -75.7031 277° West 393 452 28,600 900 Climbing Boston Center
07:25AM 43.1453 -76.0128 276° West 387 445 30,300 840 Climbing Cleveland Center
07:26AM 43.1575 -76.1656 276° West 387 445 31,100 900 Climbing Cleveland Center
07:27AM 43.1614 -76.3219 272° West 403 464 32,100 960 Climbing Cleveland Center
07:28AM 43.1606 -76.4731 270° West 403 464 33,100 900 Climbing Cleveland Center
07:29AM 43.1594 -76.6239 269° West 403 464 34,000 840 Climbing Cleveland Center
07:30AM 43.1600 -76.7606 270° West 403 464 34,800 780 Climbing Cleveland Center
07:31AM 43.1606 -76.9114 270° West 403 464 35,600 720 Climbing Cleveland Center
07:32AM 43.1592 -77.0625 269° West 403 464 36,300 600 Climbing Cleveland Center
07:33AM 43.1592 -77.2106 270° West 403 464 36,800 480 Climbing Cleveland Center
07:34AM 43.1575 -77.3642 269° West 403 464 37,300 480 Climbing Cleveland Center
07:35AM 43.1553 -77.5153 269° West 403 464 37,800 300 Climbing Cleveland Center
07:36AM 43.1553 -77.6803 270° West 403 464 38,000 60 Climbing Cleveland Center
07:37AM 43.1528 -77.8342 269° West 403 464 38,000  Level Cleveland Center
07:38AM 43.1503 -77.9881 269° West 403 464 38,000  Level Cleveland Center
07:39AM 43.1494 -78.1475 270° West 408 470 38,000  Level Cleveland Center
07:40AM 43.1464 -78.3039 269° West 408 470 38,000  Level Cleveland Center
07:41AM 43.1408 -78.4578 267° West 413 475 38,000  Level Cleveland Center
07:42AM 43.1375 -78.6144 268° West 413 475 38,000  Level Cleveland Center
07:43AM 43.1317 -78.7711 267° West 413 475 38,000  Level Cleveland Center
07:44AM 43.1167 -78.8833 260° West 410 472 38,000  Level Toronto Center
07:45AM 43.1167 -79.0333 270° West 410 472 38,000  Level Toronto Center
07:46AM 43.1167 -79.2000 270° West 410 472 38,000  Level Toronto Center
07:47AM 43.1000 -79.3667 262° West 410 472 38,000  Level Toronto Center
07:48AM 43.1000 -79.5167 270° West 410 472 38,000  Level Toronto Center
07:49AM 43.1000 -79.6500 270° West 410 472 38,000  Level Toronto Center
07:50AM 43.0833 -79.8167 262° West 410 472 38,000  Level Toronto Center
07:51AM 43.0833 -79.9833 270° West 400 460 38,000  Level Toronto Center
07:52AM 43.0667 -80.1333 261° West 410 472 38,000  Level Toronto Center
07:53AM 43.0667 -80.2667 270° West 410 472 38,000  Level Toronto Center
07:54AM 43.0667 -80.4333 270° West 400 460 38,000  Level Toronto Center
07:55AM 43.0500 -80.5833 261° West 400 460 38,000  Level Toronto Center
07:56AM 43.0500 -80.7333 270° West 400 460 38,000  Level Toronto Center
07:57AM 43.0333 -80.8833 261° West 400 460 38,000  Level Toronto Center
07:58AM 43.0167 -81.0500 262° West 400 460 38,000  Level Toronto Center
07:59AM 43.0167 -81.2000 270° West 400 460 38,000  Level Toronto Center
08:00AM 43.0167 -81.3500 270° West 400 460 38,000  Level Toronto Center
08:01AM 43.0167 -81.5000 270° West 410 472 38,000  Level Toronto Center
08:02AM 43.0167 -81.6667 270° West 410 472 38,000  Level Toronto Center
08:03AM 43.0167 -81.8167 270° West 410 472 38,000  Level Toronto Center
08:04AM 43.0000 -81.9833 262° West 410 472 38,000  Level Toronto Center
08:05AM 43.0000 -82.1333 270° West 410 472 38,000  Level Toronto Center
08:06AM 43.0000 -82.2833 270° West 410 472 38,000  Level Toronto Center
08:07AM 43.0000 -82.4333 270° West 410 472 38,000  Level Toronto Center
08:08AM 43.0000 -82.6000 270° West 420 483 38,000 -300 Level Toronto Center
08:08AM 43.0006 -82.7436 270° West 419 482 37,500 -720 Descending Cleveland Center
08:09AM 42.9956 -82.8994 268° West 419 482 36,700 -900 Descending Cleveland Center
08:10AM 42.9922 -83.0556 268° West 419 482 35,700 -1,020 Descending Cleveland Center
08:11AM 42.9844 -83.2142 266° West 419 482 34,700 -1,020 Descending Cleveland Center
08:12AM 42.9808 -83.3758 268° West 419 482 33,700 -1,140 Descending Cleveland Center
08:13AM 42.9739 -83.5628 267° West 436 502 32,500 -900 Descending Cleveland Center
08:14AM 42.9675 -83.7300 267° West 441 507 32,000 -300 Descending Cleveland Center
08:15AM 42.9525 -83.8964 263° West 441 507 32,000  Level Cleveland Center
08:16AM 42.9369 -84.0631 263° West 441 507 32,000 -60 Level Cleveland Center
08:17AM 42.9194 -84.2267 262° West 441 507 31,900 -420 Descending Cleveland Center
08:18AM 42.9022 -84.3731 261° West 436 502 31,200 -780 Descending Cleveland Center
08:20AM 42.8794 -84.6308 263° West 438 504 30,000 -480 Descending Chicago Center
08:21AM 42.8614 -84.7975 262° West 444 511 30,000  Level Chicago Center
08:22AM 42.8447 -84.9661 262° West 450 518 30,000  Level Chicago Center
08:23AM 42.8264 -85.1353 262° West 451 519 30,000 -540 Level Chicago Center
08:24AM 42.8083 -85.2994 262° West 442 509 29,000 -1,320 Descending Chicago Center
08:25AM 42.7906 -85.4625 262° West 436 502 27,400 -1,620 Descending Chicago Center
08:26AM 42.7647 -85.6203 257° West 428 493 25,800 -1,620 Descending Chicago Center
08:27AM 42.7372 -85.7747 256° West 420 483 24,100 -1,620 Descending Chicago Center
08:28AM 42.7100 -85.9247 256° West 409 471 22,500 -1,500 Descending Chicago Center
08:29AM 42.6828 -86.0725 256° West 402 463 21,100 -1,260 Descending Chicago Center
08:30AM 42.6511 -86.2422 256° West 386 444 20,000 -540 Descending Chicago Center
08:31AM 42.6239 -86.3803 255° West 379 436 20,000 -720 Level Chicago Center
08:32AM 42.5978 -86.5206 256° West 381 438 18,600 -1,440 Descending Chicago Center
08:33AM 42.5731 -86.6553 256° West 370 426 17,100 -1,620 Descending Chicago Center
08:34AM 42.5447 -86.7864 254° West 364 419 15,400 -1,680 Descending Chicago Center
08:35AM 42.5122 -86.9061 250° West 344 396 13,700 -1,620 Descending Chicago Center
08:36AM 42.4814 -87.0197 250° West 323 372 12,100 -1,620 Descending Chicago Center
08:37AM 42.4531 -87.1172 249° West 285 328 10,500 -1,380 Descending Chicago Center
08:38AM 42.4278 -87.2083 249° West 262 302 9,300 -1,020 Descending Chicago Center
08:39AM 42.4031 -87.2967 249° West 252 290 8,500 -1,020 Descending Chicago Center
08:40AM 42.3597 -87.3936 239° Southwest 263 303 7,300 -1,020 Descending Chicago Center
08:41AM 42.3019 -87.4269 203° Southwest 255 293 6,500 -1,020 Descending Chicago Center
08:42AM 42.2214 -87.4756 204° Southwest 265 305 5,300 -840 Descending Chicago Center
08:44AM 42.1547 -87.5172 205° Southwest 265 305 4,900 -660 Descending Chicago Center
08:45AM 42.0883 -87.5569 204° Southwest 264 304 4,000 -720 Descending Chicago Center
08:46AM 42.0353 -87.6067 215° Southwest 239 275 3,500 -720 Descending Chicago Center
08:47AM 42.0017 -87.6647 232° Southwest 206 237 2,600 -660 Descending Chicago Center
08:48AM 41.9817 -87.7242 246° West 183 211 2,200 -300 Descending Chicago Center
08:49AM 41.9836 -87.7886 272° West 177 204 2,000 -540 Descending Chicago Center
08:50AM 41.9831 -87.8533 269° West 155 178 1,200 -600 Descending Chicago Center
08:51AM 41.9817 -87.8939 267° West 141 162 800 -420 Descending Chicago Center